SBOSBO VAA / EFVA
Speedbird OnlineSpeedbird Online VAA / EFVA

Vaasa Airport
21:02 3.3°C

Location Vaasa, Finland
Latitude: 63.050701141357
Longitude: 21.762199401855
Local Time 21:02 on 23 Feb 2024
UTC +2 hours (Europe/Helsinki)
Currency £1 equals EUR 1.17
METAR EFVA 231850Z AUTO 17015KT 9999 OVC011 03/02 Q0991
TAF TAF EFVA 231728Z 2318/2418 17015KT 9999 BKN015 TEMPO 2318/2321 BKN008 TEMPO 2322/2405 20015G25KT BKN012 BECMG 2416/2418 17005KT
Weather As Of 23 Feb 2024 21:02
Description Overcast clouds
Wind 28 km/h from South (170°)
Cloud Cover 100%
Precipitation Rain: none, Snow: none
Sunrise 08:00
Sunset 17:32
NOTAM 4 active NOTAM
Rotations During the last 90 days there were
12 flights to HEL
Web Airport Website | Wikipedia
Codes IATA: VAA
ICAO: EFVA
Altitude 6 Meter / 19 Feet
Distance 1,811 KM / 1,125 Miles
from London.
Runways
RunwayLength (m)Surface
111500Asphalt
162660Asphalt
291500Asphalt
342660Asphalt
Radio
TypeDescriptionFrequency
ATISATIS114.5
TWRTWR119.3
Live ATC



Support Speedbird Online

© 2017-2024 Speedbird Online